Holmes Beach, Florida
Current Conditions -  °F | °C
As of 2:53 PM on Saturday 25 Oct 2014 (Local Time) from KSRQ Reporting Station
Clear Clear  
Wind Chill: 79°   Ceiling: Unl
Heat Index: 79°   Visibility: 10mi
Dew Point: 54°   Wind: 8mph
Humidity: 42%   Direction: 360°N
Pressure: 29.93"   Gusts: NA
Location:  27.5°N, 82.71°W
Report Text: KSRQ 251853Z AUTO 36007KT 10SM CLR 26/12 A2993 RMK AO2 SLP136 T02610122
Loading
Personal Weather Stations






























Interactive Weather Map New forecast layout! Learn more

10-Day Weather Forecast

Advertisements
Track Severe Weather on mobile